sensor_id;sensor_type;location;lat;lon;timestamp;P1;durP1;ratioP1;P2;durP2;ratioP2
41466;SDS011;72625;53.700;19.958;2023-09-19T00:03:44;6.60;;;6.10;;
41466;SDS011;72625;53.700;19.958;2023-09-19T00:08:46;7.60;;;6.90;;
41466;SDS011;72625;53.700;19.958;2023-09-19T00:13:49;7.30;;;6.80;;
41466;SDS011;72625;53.700;19.958;2023-09-19T00:18:54;7.20;;;6.60;;
41466;SDS011;72625;53.700;19.958;2023-09-19T00:23:56;7.80;;;7.10;;
41466;SDS011;72625;53.700;19.958;2023-09-19T00:28:58;8.00;;;7.30;;
41466;SDS011;72625;53.700;19.958;2023-09-19T00:34:06;6.90;;;6.30;;
41466;SDS011;72625;53.700;19.958;2023-09-19T00:39:08;7.80;;;7.20;;
41466;SDS011;72625;53.700;19.958;2023-09-19T00:44:11;6.60;;;6.10;;
41466;SDS011;72625;53.700;19.958;2023-09-19T00:49:14;6.70;;;6.20;;
41466;SDS011;72625;53.700;19.958;2023-09-19T00:54:16;7.60;;;6.90;;
41466;SDS011;72625;53.700;19.958;2023-09-19T00:59:20;7.10;;;6.60;;
41466;SDS011;72625;53.700;19.958;2023-09-19T01:04:24;7.80;;;6.90;;
41466;SDS011;72625;53.700;19.958;2023-09-19T01:09:26;7.10;;;6.60;;
41466;SDS011;72625;53.700;19.958;2023-09-19T01:25:19;7.20;;;6.50;;
41466;SDS011;72625;53.700;19.958;2023-09-19T01:30:56;7.70;;;7.10;;
41466;SDS011;72625;53.700;19.958;2023-09-19T01:36:00;7.50;;;6.90;;
41466;SDS011;72625;53.700;19.958;2023-09-19T01:41:03;7.70;;;7.10;;
41466;SDS011;72625;53.700;19.958;2023-09-19T01:46:21;7.40;;;6.80;;
41466;SDS011;72625;53.700;19.958;2023-09-19T01:51:48;7.50;;;7.00;;
41466;SDS011;72625;53.700;19.958;2023-09-19T02:02:18;8.10;;;7.40;;
41466;SDS011;72625;53.700;19.958;2023-09-19T02:07:24;8.50;;;7.90;;
41466;SDS011;72625;53.700;19.958;2023-09-19T02:12:26;7.90;;;7.30;;
41466;SDS011;72625;53.700;19.958;2023-09-19T02:17:28;8.20;;;7.40;;
41466;SDS011;72625;53.700;19.958;2023-09-19T02:22:32;8.20;;;7.60;;
41466;SDS011;72625;53.700;19.958;2023-09-19T02:27:34;8.70;;;7.80;;
41466;SDS011;72625;53.700;19.958;2023-09-19T02:32:37;8.90;;;8.20;;
41466;SDS011;72625;53.700;19.958;2023-09-19T02:37:40;7.90;;;7.30;;
41466;SDS011;72625;53.700;19.958;2023-09-19T02:42:42;7.90;;;7.40;;
41466;SDS011;72625;53.700;19.958;2023-09-19T02:47:44;9.10;;;8.40;;
41466;SDS011;72625;53.700;19.958;2023-09-19T02:52:47;8.70;;;8.10;;
41466;SDS011;72625;53.700;19.958;2023-09-19T02:57:51;9.60;;;8.80;;
41466;SDS011;72625;53.700;19.958;2023-09-19T03:02:56;9.20;;;8.50;;
41466;SDS011;72625;53.700;19.958;2023-09-19T03:07:58;9.20;;;8.50;;
41466;SDS011;72625;53.700;19.958;2023-09-19T03:18:04;9.10;;;8.40;;
41466;SDS011;72625;53.700;19.958;2023-09-19T03:23:07;8.90;;;8.20;;
41466;SDS011;72625;53.700;19.958;2023-09-19T03:28:10;9.20;;;8.40;;
41466;SDS011;72625;53.700;19.958;2023-09-19T03:33:12;8.60;;;8.00;;
41466;SDS011;72625;53.700;19.958;2023-09-19T03:38:14;9.00;;;8.30;;
41466;SDS011;72625;53.700;19.958;2023-09-19T03:43:16;9.30;;;8.60;;
41466;SDS011;72625;53.700;19.958;2023-09-19T03:48:18;9.30;;;8.50;;
41466;SDS011;72625;53.700;19.958;2023-09-19T03:53:21;9.00;;;8.20;;
41466;SDS011;72625;53.700;19.958;2023-09-19T03:58:23;9.80;;;8.70;;
41466;SDS011;72625;53.700;19.958;2023-09-19T04:03:25;9.20;;;8.50;;
41466;SDS011;72625;53.700;19.958;2023-09-19T04:08:36;9.20;;;8.50;;
41466;SDS011;72625;53.700;19.958;2023-09-19T04:13:38;9.20;;;8.50;;
41466;SDS011;72625;53.700;19.958;2023-09-19T04:18:41;9.80;;;9.00;;
41466;SDS011;72625;53.700;19.958;2023-09-19T04:23:43;8.80;;;8.20;;
41466;SDS011;72625;53.700;19.958;2023-09-19T04:28:45;10.90;;;9.60;;
41466;SDS011;72625;53.700;19.958;2023-09-19T04:33:47;10.10;;;9.20;;
41466;SDS011;72625;53.700;19.958;2023-09-19T04:38:49;10.50;;;9.40;;
41466;SDS011;72625;53.700;19.958;2023-09-19T04:43:51;10.30;;;9.30;;
41466;SDS011;72625;53.700;19.958;2023-09-19T04:48:54;9.40;;;8.70;;
41466;SDS011;72625;53.700;19.958;2023-09-19T04:53:56;9.90;;;9.00;;
41466;SDS011;72625;53.700;19.958;2023-09-19T04:58:58;10.50;;;9.60;;
41466;SDS011;72625;53.700;19.958;2023-09-19T05:04:03;9.60;;;8.80;;
41466;SDS011;72625;53.700;19.958;2023-09-19T05:09:06;65.40;;;19.60;;
41466;SDS011;72625;53.700;19.958;2023-09-19T05:14:08;11.20;;;10.20;;
41466;SDS011;72625;53.700;19.958;2023-09-19T05:19:10;9.10;;;8.20;;
41466;SDS011;72625;53.700;19.958;2023-09-19T05:24:13;11.60;;;9.90;;
41466;SDS011;72625;53.700;19.958;2023-09-19T05:29:16;17.00;;;9.50;;
41466;SDS011;72625;53.700;19.958;2023-09-19T05:34:18;9.60;;;8.80;;
41466;SDS011;72625;53.700;19.958;2023-09-19T05:39:21;8.80;;;8.10;;
41466;SDS011;72625;53.700;19.958;2023-09-19T05:44:24;14.80;;;12.10;;
41466;SDS011;72625;53.700;19.958;2023-09-19T05:49:26;10.20;;;9.40;;
41466;SDS011;72625;53.700;19.958;2023-09-19T05:54:33;10.60;;;9.70;;
41466;SDS011;72625;53.700;19.958;2023-09-19T05:59:35;11.40;;;10.50;;
41466;SDS011;72625;53.700;19.958;2023-09-19T06:04:37;11.80;;;10.90;;
41466;SDS011;72625;53.700;19.958;2023-09-19T06:09:42;14.60;;;13.30;;
41466;SDS011;72625;53.700;19.958;2023-09-19T06:14:44;12.50;;;11.50;;
41466;SDS011;72625;53.700;19.958;2023-09-19T06:19:47;11.20;;;10.30;;
41466;SDS011;72625;53.700;19.958;2023-09-19T06:24:49;12.20;;;11.30;;
41466;SDS011;72625;53.700;19.958;2023-09-19T06:29:51;12.00;;;10.80;;
41466;SDS011;72625;53.700;19.958;2023-09-19T06:34:53;11.30;;;10.10;;
41466;SDS011;72625;53.700;19.958;2023-09-19T06:39:56;11.80;;;10.80;;
41466;SDS011;72625;53.700;19.958;2023-09-19T06:44:58;13.60;;;12.60;;
41466;SDS011;72625;53.700;19.958;2023-09-19T06:50:00;21.40;;;19.30;;
41466;SDS011;72625;53.700;19.958;2023-09-19T06:55:03;20.90;;;19.20;;
41466;SDS011;72625;53.700;19.958;2023-09-19T07:00:07;12.80;;;11.80;;
41466;SDS011;72625;53.700;19.958;2023-09-19T07:05:16;10.70;;;9.90;;
41466;SDS011;72625;53.700;19.958;2023-09-19T07:10:20;11.10;;;10.30;;
41466;SDS011;72625;53.700;19.958;2023-09-19T07:15:25;11.50;;;10.60;;
41466;SDS011;72625;53.700;19.958;2023-09-19T07:20:28;12.60;;;11.70;;
41466;SDS011;72625;53.700;19.958;2023-09-19T07:25:33;12.70;;;11.80;;
41466;SDS011;72625;53.700;19.958;2023-09-19T07:30:37;11.40;;;10.60;;
41466;SDS011;72625;53.700;19.958;2023-09-19T07:35:40;12.60;;;11.50;;
41466;SDS011;72625;53.700;19.958;2023-09-19T07:40:47;11.90;;;11.10;;
41466;SDS011;72625;53.700;19.958;2023-09-19T07:45:49;13.50;;;12.50;;
41466;SDS011;72625;53.700;19.958;2023-09-19T07:56:06;12.10;;;11.10;;
41466;SDS011;72625;53.700;19.958;2023-09-19T08:01:10;13.10;;;11.80;;
41466;SDS011;72625;53.700;19.958;2023-09-19T08:06:15;16.40;;;15.10;;
41466;SDS011;72625;53.700;19.958;2023-09-19T08:11:18;10.60;;;9.70;;
41466;SDS011;72625;53.700;19.958;2023-09-19T08:16:23;9.00;;;8.20;;
41466;SDS011;72625;53.700;19.958;2023-09-19T08:26:31;8.50;;;7.60;;
41466;SDS011;72625;53.700;19.958;2023-09-19T08:31:34;10.20;;;9.40;;
41466;SDS011;72625;53.700;19.958;2023-09-19T08:36:36;11.90;;;10.70;;
41466;SDS011;72625;53.700;19.958;2023-09-19T08:46:42;12.80;;;11.60;;
41466;SDS011;72625;53.700;19.958;2023-09-19T08:51:46;7.20;;;6.60;;
41466;SDS011;72625;53.700;19.958;2023-09-19T08:56:55;7.00;;;6.50;;
41466;SDS011;72625;53.700;19.958;2023-09-19T09:02:12;7.80;;;7.00;;
41466;SDS011;72625;53.700;19.958;2023-09-19T09:07:14;7.60;;;7.00;;
41466;SDS011;72625;53.700;19.958;2023-09-19T09:12:18;5.70;;;5.30;;
41466;SDS011;72625;53.700;19.958;2023-09-19T09:17:20;5.70;;;5.20;;
41466;SDS011;72625;53.700;19.958;2023-09-19T09:22:22;4.50;;;4.10;;
41466;SDS011;72625;53.700;19.958;2023-09-19T09:27:25;4.80;;;4.40;;
41466;SDS011;72625;53.700;19.958;2023-09-19T09:32:28;4.10;;;3.70;;
41466;SDS011;72625;53.700;19.958;2023-09-19T09:37:33;4.30;;;4.00;;
41466;SDS011;72625;53.700;19.958;2023-09-19T09:42:36;6.00;;;5.40;;
41466;SDS011;72625;53.700;19.958;2023-09-19T09:47:40;7.10;;;6.50;;
41466;SDS011;72625;53.700;19.958;2023-09-19T09:52:45;10.50;;;8.90;;
41466;SDS011;72625;53.700;19.958;2023-09-19T09:57:52;6.30;;;5.60;;
41466;SDS011;72625;53.700;19.958;2023-09-19T10:03:31;5.50;;;5.00;;
41466;SDS011;72625;53.700;19.958;2023-09-19T10:08:45;6.80;;;4.90;;
41466;SDS011;72625;53.700;19.958;2023-09-19T10:14:10;6.20;;;5.30;;
41466;SDS011;72625;53.700;19.958;2023-09-19T10:19:23;7.30;;;5.70;;
41466;SDS011;72625;53.700;19.958;2023-09-19T10:24:35;22.10;;;9.10;;
41466;SDS011;72625;53.700;19.958;2023-09-19T10:29:53;5.40;;;4.90;;
41466;SDS011;72625;53.700;19.958;2023-09-19T10:34:57;5.20;;;4.70;;
41466;SDS011;72625;53.700;19.958;2023-09-19T10:39:59;5.20;;;4.70;;
41466;SDS011;72625;53.700;19.958;2023-09-19T10:45:01;4.30;;;4.00;;
41466;SDS011;72625;53.700;19.958;2023-09-19T10:50:13;8.00;;;4.70;;
41466;SDS011;72625;53.700;19.958;2023-09-19T10:55:24;6.00;;;5.30;;
41466;SDS011;72625;53.700;19.958;2023-09-19T11:00:30;7.50;;;5.40;;
41466;SDS011;72625;53.700;19.958;2023-09-19T11:05:35;6.20;;;5.60;;
41466;SDS011;72625;53.700;19.958;2023-09-19T11:10:46;6.70;;;6.00;;
41466;SDS011;72625;53.700;19.958;2023-09-19T11:16:02;7.70;;;7.10;;
41466;SDS011;72625;53.700;19.958;2023-09-19T11:26:42;12.20;;;11.10;;
41466;SDS011;72625;53.700;19.958;2023-09-19T11:31:50;11.80;;;10.60;;
41466;SDS011;72625;53.700;19.958;2023-09-19T11:36:53;13.70;;;12.50;;
41466;SDS011;72625;53.700;19.958;2023-09-19T11:41:56;13.40;;;12.20;;
41466;SDS011;72625;53.700;19.958;2023-09-19T11:46:58;11.40;;;10.30;;
41466;SDS011;72625;53.700;19.958;2023-09-19T11:52:01;11.00;;;10.00;;
41466;SDS011;72625;53.700;19.958;2023-09-19T11:57:07;9.30;;;8.50;;
41466;SDS011;72625;53.700;19.958;2023-09-19T12:02:11;6.90;;;6.30;;
41466;SDS011;72625;53.700;19.958;2023-09-19T12:07:15;6.10;;;5.60;;
41466;SDS011;72625;53.700;19.958;2023-09-19T12:12:19;6.90;;;6.00;;
41466;SDS011;72625;53.700;19.958;2023-09-19T12:17:23;6.20;;;5.60;;
41466;SDS011;72625;53.700;19.958;2023-09-19T12:22:28;20.00;;;10.00;;
41466;SDS011;72625;53.700;19.958;2023-09-19T12:27:42;7.20;;;6.50;;
41466;SDS011;72625;53.700;19.958;2023-09-19T12:32:45;7.00;;;4.20;;
41466;SDS011;72625;53.700;19.958;2023-09-19T12:37:51;4.30;;;3.30;;
41466;SDS011;72625;53.700;19.958;2023-09-19T12:42:59;5.40;;;3.70;;
41466;SDS011;72625;53.700;19.958;2023-09-19T12:53:36;4.00;;;3.60;;
41466;SDS011;72625;53.700;19.958;2023-09-19T12:58:53;4.70;;;4.10;;
41466;SDS011;72625;53.700;19.958;2023-09-19T13:04:18;5.00;;;4.00;;
41466;SDS011;72625;53.700;19.958;2023-09-19T13:09:22;4.70;;;3.40;;
41466;SDS011;72625;53.700;19.958;2023-09-19T13:14:35;4.40;;;3.30;;
41466;SDS011;72625;53.700;19.958;2023-09-19T13:19:43;5.50;;;3.60;;
41466;SDS011;72625;53.700;19.958;2023-09-19T13:24:58;3.20;;;2.70;;
41466;SDS011;72625;53.700;19.958;2023-09-19T13:30:00;3.20;;;2.90;;
41466;SDS011;72625;53.700;19.958;2023-09-19T13:35:02;3.60;;;2.90;;
41466;SDS011;72625;53.700;19.958;2023-09-19T13:40:07;2.70;;;2.50;;
41466;SDS011;72625;53.700;19.958;2023-09-19T13:45:15;3.80;;;3.40;;
41466;SDS011;72625;53.700;19.958;2023-09-19T13:50:19;8.80;;;4.10;;
41466;SDS011;72625;53.700;19.958;2023-09-19T13:55:25;4.20;;;3.80;;
41466;SDS011;72625;53.700;19.958;2023-09-19T14:00:27;5.60;;;4.30;;
41466;SDS011;72625;53.700;19.958;2023-09-19T14:05:32;3.30;;;2.00;;
41466;SDS011;72625;53.700;19.958;2023-09-19T14:10:34;3.80;;;2.30;;
41466;SDS011;72625;53.700;19.958;2023-09-19T14:15:37;3.20;;;2.00;;
41466;SDS011;72625;53.700;19.958;2023-09-19T14:20:39;2.60;;;1.30;;
41466;SDS011;72625;53.700;19.958;2023-09-19T14:25:42;2.20;;;1.60;;
41466;SDS011;72625;53.700;19.958;2023-09-19T14:30:47;2.10;;;1.90;;
41466;SDS011;72625;53.700;19.958;2023-09-19T14:35:50;3.20;;;2.20;;
41466;SDS011;72625;53.700;19.958;2023-09-19T14:40:59;4.10;;;2.20;;
41466;SDS011;72625;53.700;19.958;2023-09-19T14:46:05;3.00;;;2.00;;
41466;SDS011;72625;53.700;19.958;2023-09-19T14:51:12;1.90;;;1.80;;
41466;SDS011;72625;53.700;19.958;2023-09-19T14:56:18;3.30;;;1.90;;
41466;SDS011;72625;53.700;19.958;2023-09-19T15:01:25;3.60;;;2.50;;
41466;SDS011;72625;53.700;19.958;2023-09-19T15:06:27;4.60;;;2.10;;
41466;SDS011;72625;53.700;19.958;2023-09-19T15:11:29;7.00;;;2.40;;
41466;SDS011;72625;53.700;19.958;2023-09-19T15:16:31;4.10;;;2.40;;
41466;SDS011;72625;53.700;19.958;2023-09-19T15:21:34;5.40;;;4.70;;
41466;SDS011;72625;53.700;19.958;2023-09-19T15:26:37;2.60;;;2.30;;
41466;SDS011;72625;53.700;19.958;2023-09-19T15:31:42;3.60;;;2.00;;
41466;SDS011;72625;53.700;19.958;2023-09-19T15:36:44;2.60;;;2.00;;
41466;SDS011;72625;53.700;19.958;2023-09-19T15:41:48;2.20;;;1.70;;
41466;SDS011;72625;53.700;19.958;2023-09-19T15:46:52;3.00;;;2.70;;
41466;SDS011;72625;53.700;19.958;2023-09-19T15:51:55;2.20;;;1.80;;
41466;SDS011;72625;53.700;19.958;2023-09-19T15:56:57;2.50;;;2.30;;
41466;SDS011;72625;53.700;19.958;2023-09-19T16:02:01;4.90;;;2.20;;
41466;SDS011;72625;53.700;19.958;2023-09-19T16:07:04;3.70;;;2.30;;
41466;SDS011;72625;53.700;19.958;2023-09-19T16:12:06;5.60;;;3.50;;
41466;SDS011;72625;53.700;19.958;2023-09-19T16:17:11;2.40;;;2.20;;
41466;SDS011;72625;53.700;19.958;2023-09-19T16:22:16;2.70;;;2.50;;
41466;SDS011;72625;53.700;19.958;2023-09-19T16:27:18;2.90;;;2.20;;
41466;SDS011;72625;53.700;19.958;2023-09-19T16:32:22;3.00;;;2.30;;
41466;SDS011;72625;53.700;19.958;2023-09-19T16:37:24;3.40;;;3.00;;
41466;SDS011;72625;53.700;19.958;2023-09-19T16:42:30;3.50;;;3.00;;
41466;SDS011;72625;53.700;19.958;2023-09-19T16:47:40;3.40;;;2.70;;
41466;SDS011;72625;53.700;19.958;2023-09-19T16:52:43;3.70;;;2.90;;
41466;SDS011;72625;53.700;19.958;2023-09-19T16:57:48;3.90;;;3.60;;
41466;SDS011;72625;53.700;19.958;2023-09-19T17:02:50;9.50;;;7.80;;
41466;SDS011;72625;53.700;19.958;2023-09-19T17:07:55;17.40;;;15.70;;
41466;SDS011;72625;53.700;19.958;2023-09-19T17:12:58;15.00;;;13.60;;
41466;SDS011;72625;53.700;19.958;2023-09-19T17:18:00;7.20;;;6.50;;
41466;SDS011;72625;53.700;19.958;2023-09-19T17:23:02;3.60;;;3.30;;
41466;SDS011;72625;53.700;19.958;2023-09-19T17:28:04;3.80;;;2.60;;
41466;SDS011;72625;53.700;19.958;2023-09-19T17:33:07;3.00;;;2.60;;
41466;SDS011;72625;53.700;19.958;2023-09-19T17:38:09;2.50;;;1.90;;
41466;SDS011;72625;53.700;19.958;2023-09-19T17:43:12;3.20;;;2.30;;
41466;SDS011;72625;53.700;19.958;2023-09-19T17:48:14;2.60;;;2.10;;
41466;SDS011;72625;53.700;19.958;2023-09-19T17:53:17;2.20;;;1.90;;
41466;SDS011;72625;53.700;19.958;2023-09-19T17:58:19;4.30;;;2.20;;
41466;SDS011;72625;53.700;19.958;2023-09-19T18:03:21;3.30;;;1.70;;
41466;SDS011;72625;53.700;19.958;2023-09-19T18:08:27;2.30;;;2.10;;
41466;SDS011;72625;53.700;19.958;2023-09-19T18:13:29;3.50;;;3.10;;
41466;SDS011;72625;53.700;19.958;2023-09-19T18:18:31;3.80;;;2.70;;
41466;SDS011;72625;53.700;19.958;2023-09-19T18:23:33;3.50;;;3.20;;
41466;SDS011;72625;53.700;19.958;2023-09-19T18:28:36;3.80;;;2.90;;
41466;SDS011;72625;53.700;19.958;2023-09-19T18:33:43;2.30;;;2.10;;
41466;SDS011;72625;53.700;19.958;2023-09-19T18:38:46;2.40;;;2.20;;
41466;SDS011;72625;53.700;19.958;2023-09-19T18:48:52;3.10;;;2.70;;
41466;SDS011;72625;53.700;19.958;2023-09-19T18:53:55;3.30;;;3.00;;
41466;SDS011;72625;53.700;19.958;2023-09-19T18:59:13;2.90;;;2.70;;
41466;SDS011;72625;53.700;19.958;2023-09-19T19:04:17;3.40;;;3.10;;
41466;SDS011;72625;53.700;19.958;2023-09-19T19:09:22;3.20;;;3.00;;
41466;SDS011;72625;53.700;19.958;2023-09-19T19:14:24;4.40;;;3.20;;
41466;SDS011;72625;53.700;19.958;2023-09-19T19:19:27;3.10;;;2.90;;
41466;SDS011;72625;53.700;19.958;2023-09-19T19:24:29;4.80;;;3.70;;
41466;SDS011;72625;53.700;19.958;2023-09-19T19:29:34;3.70;;;3.20;;
41466;SDS011;72625;53.700;19.958;2023-09-19T19:34:36;3.80;;;3.50;;
41466;SDS011;72625;53.700;19.958;2023-09-19T19:39:39;3.80;;;3.40;;
41466;SDS011;72625;53.700;19.958;2023-09-19T19:44:41;3.80;;;3.30;;
41466;SDS011;72625;53.700;19.958;2023-09-19T19:49:43;4.30;;;3.50;;
41466;SDS011;72625;53.700;19.958;2023-09-19T19:54:48;4.70;;;3.20;;
41466;SDS011;72625;53.700;19.958;2023-09-19T19:59:52;5.00;;;4.50;;
41466;SDS011;72625;53.700;19.958;2023-09-19T20:04:55;7.10;;;3.70;;
41466;SDS011;72625;53.700;19.958;2023-09-19T20:09:58;3.40;;;3.20;;
41466;SDS011;72625;53.700;19.958;2023-09-19T20:15:00;5.00;;;3.80;;
41466;SDS011;72625;53.700;19.958;2023-09-19T20:20:05;7.40;;;3.70;;
41466;SDS011;72625;53.700;19.958;2023-09-19T20:25:19;3.90;;;3.50;;
41466;SDS011;72625;53.700;19.958;2023-09-19T20:30:25;4.10;;;3.80;;
41466;SDS011;72625;53.700;19.958;2023-09-19T20:35:28;3.50;;;2.80;;
41466;SDS011;72625;53.700;19.958;2023-09-19T20:40:31;3.70;;;3.40;;
41466;SDS011;72625;53.700;19.958;2023-09-19T20:45:36;5.70;;;3.70;;
41466;SDS011;72625;53.700;19.958;2023-09-19T20:50:43;4.80;;;3.70;;
41466;SDS011;72625;53.700;19.958;2023-09-19T20:55:46;5.30;;;4.60;;
41466;SDS011;72625;53.700;19.958;2023-09-19T21:00:48;4.70;;;4.20;;
41466;SDS011;72625;53.700;19.958;2023-09-19T21:06:02;5.00;;;4.20;;
41466;SDS011;72625;53.700;19.958;2023-09-19T21:11:10;6.10;;;4.30;;
41466;SDS011;72625;53.700;19.958;2023-09-19T21:16:14;3.50;;;3.10;;
41466;SDS011;72625;53.700;19.958;2023-09-19T21:21:16;6.00;;;3.80;;
41466;SDS011;72625;53.700;19.958;2023-09-19T21:26:22;5.10;;;3.50;;
41466;SDS011;72625;53.700;19.958;2023-09-19T21:31:24;3.70;;;3.40;;
41466;SDS011;72625;53.700;19.958;2023-09-19T21:36:26;6.40;;;3.50;;
41466;SDS011;72625;53.700;19.958;2023-09-19T21:41:34;3.60;;;3.30;;
41466;SDS011;72625;53.700;19.958;2023-09-19T21:46:38;3.50;;;3.20;;
41466;SDS011;72625;53.700;19.958;2023-09-19T21:51:41;4.60;;;3.60;;
41466;SDS011;72625;53.700;19.958;2023-09-19T21:56:43;4.80;;;3.90;;
41466;SDS011;72625;53.700;19.958;2023-09-19T22:01:46;4.60;;;3.70;;
41466;SDS011;72625;53.700;19.958;2023-09-19T22:06:48;4.40;;;3.90;;
41466;SDS011;72625;53.700;19.958;2023-09-19T22:11:53;4.40;;;3.70;;
41466;SDS011;72625;53.700;19.958;2023-09-19T22:16:56;3.60;;;3.30;;
41466;SDS011;72625;53.700;19.958;2023-09-19T22:22:01;4.20;;;3.80;;
41466;SDS011;72625;53.700;19.958;2023-09-19T22:27:04;4.20;;;3.80;;
41466;SDS011;72625;53.700;19.958;2023-09-19T22:32:07;4.20;;;3.80;;
41466;SDS011;72625;53.700;19.958;2023-09-19T22:37:11;3.80;;;3.50;;
41466;SDS011;72625;53.700;19.958;2023-09-19T22:42:13;3.80;;;3.40;;
41466;SDS011;72625;53.700;19.958;2023-09-19T22:47:18;3.90;;;3.60;;
41466;SDS011;72625;53.700;19.958;2023-09-19T22:52:20;6.00;;;4.10;;
41466;SDS011;72625;53.700;19.958;2023-09-19T22:57:23;5.60;;;3.80;;
41466;SDS011;72625;53.700;19.958;2023-09-19T23:02:26;4.10;;;3.70;;
41466;SDS011;72625;53.700;19.958;2023-09-19T23:07:30;4.00;;;3.60;;
41466;SDS011;72625;53.700;19.958;2023-09-19T23:12:32;4.40;;;3.90;;
41466;SDS011;72625;53.700;19.958;2023-09-19T23:17:35;4.70;;;3.70;;
41466;SDS011;72625;53.700;19.958;2023-09-19T23:22:37;4.90;;;4.50;;
41466;SDS011;72625;53.700;19.958;2023-09-19T23:27:42;6.90;;;4.30;;
41466;SDS011;72625;53.700;19.958;2023-09-19T23:32:49;3.70;;;3.40;;
41466;SDS011;72625;53.700;19.958;2023-09-19T23:37:55;4.70;;;4.30;;
41466;SDS011;72625;53.700;19.958;2023-09-19T23:42:58;4.60;;;3.70;;
41466;SDS011;72625;53.700;19.958;2023-09-19T23:48:01;4.90;;;4.10;;
41466;SDS011;72625;53.700;19.958;2023-09-19T23:53:04;4.40;;;4.00;;
41466;SDS011;72625;53.700;19.958;2023-09-19T23:58:08;5.40;;;4.20;;
